GELKA EGPD-ENBR
Flight info
| Callsign | GELKA |
|---|---|
| Flight time | 1h 7m |
| Altitude | 27000 |
| Route | ADN DCT BEREP DCT MODNI |
| Aircraft | B350/L-SBGRW/S |
Departure
| Time | 2026-05-07 17:16 |
|---|---|
| Airport | Aberdeen International Airport (EGPD) |
Arrival
| Time | 2026-05-07 18:23 |
|---|---|
| Airport | Bergen Airport, Flesland (ENBR) |
| Time | Latitude | Longitude | Altitude | Speed | Heading |
|---|---|---|---|---|---|
| 2026-05-07 17:04 | 57.20179 | -2.20514 | 222 ft | 0 kts | 136° |
| 2026-05-07 17:08 | 57.20178 | -2.20513 | 222 ft | 1 kts | 132° |
| 2026-05-07 17:08 | 57.20214 | -2.20493 | 221 ft | 9 kts | 356° |
| 2026-05-07 17:08 | 57.20259 | -2.20483 | 221 ft | 9 kts | 17° |
| 2026-05-07 17:09 | 57.20326 | -2.20335 | 215 ft | 21 kts | 50° |
| 2026-05-07 17:09 | 57.20395 | -2.20203 | 208 ft | 0 kts | 45° |
| 2026-05-07 17:09 | 57.20402 | -2.20190 | 208 ft | 0 kts | 46° |
| 2026-05-07 17:09 | 57.20404 | -2.20185 | 207 ft | 4 kts | 46° |
| 2026-05-07 17:10 | 57.20456 | -2.20086 | 204 ft | 10 kts | 46° |
| 2026-05-07 17:10 | 57.20485 | -2.20023 | 202 ft | 4 kts | 54° |
| 2026-05-07 17:10 | 57.20468 | -2.19984 | 202 ft | 5 kts | 156° |
| 2026-05-07 17:10 | 57.20468 | -2.19983 | 202 ft | 0 kts | 156° |
| 2026-05-07 17:12 | 57.20432 | -2.19943 | 202 ft | 36 kts | 127° |
| 2026-05-07 17:13 | 57.20507 | -2.18914 | 456 ft | 102 kts | 107° |
| 2026-05-07 17:13 | 57.20411 | -2.17356 | 439 ft | 178 kts | 121° |
| 2026-05-07 17:13 | 57.20177 | -2.20513 | 222 ft | 0 kts | 136° |
| 2026-05-07 17:14 | 57.20176 | -2.20499 | 221 ft | 6 kts | 70° |
| 2026-05-07 17:14 | 57.20276 | -2.20465 | 221 ft | 20 kts | 46° |
| 2026-05-07 17:15 | 57.20401 | -2.20189 | 208 ft | 24 kts | 40° |
| 2026-05-07 17:15 | 57.20418 | -2.19933 | 202 ft | 51 kts | 163° |
| 2026-05-07 17:15 | 57.19787 | -2.19473 | 210 ft | 138 kts | 156° |
| 2026-05-07 17:15 | 57.18763 | -2.18625 | 482 ft | 185 kts | 155° |
| 2026-05-07 17:16 | 57.17529 | -2.17443 | 1065 ft | 211 kts | 154° |
| 2026-05-07 17:16 | 57.16330 | -2.15924 | 1950 ft | 224 kts | 141° |
| 2026-05-07 17:16 | 57.15483 | -2.13240 | 1951 ft | 276 kts | 107° |
| 2026-05-07 17:16 | 57.15860 | -2.09590 | 1996 ft | 315 kts | 60° |
| 2026-05-07 17:17 | 57.16797 | -2.06390 | 3888 ft | 262 kts | 78° |
| 2026-05-07 17:17 | 57.16972 | -2.03252 | 4893 ft | 257 kts | 94° |
| 2026-05-07 17:17 | 57.16991 | -2.00034 | 5999 ft | 246 kts | 94° |
| 2026-05-07 17:17 | 57.17028 | -1.97189 | 7533 ft | 216 kts | 94° |
| 2026-05-07 17:18 | 57.17068 | -1.94619 | 8759 ft | 197 kts | 94° |
| 2026-05-07 17:18 | 57.17103 | -1.92202 | 9695 ft | 192 kts | 94° |
| 2026-05-07 17:18 | 57.17133 | -1.89760 | 10480 ft | 194 kts | 94° |
| 2026-05-07 17:18 | 57.17155 | -1.87294 | 11180 ft | 198 kts | 94° |
| 2026-05-07 17:19 | 57.17172 | -1.84732 | 11872 ft | 199 kts | 93° |
| 2026-05-07 17:19 | 57.17213 | -1.82317 | 12216 ft | 187 kts | 93° |
| 2026-05-07 17:19 | 57.17251 | -1.79895 | 12254 ft | 193 kts | 92° |
| 2026-05-07 17:19 | 57.17253 | -1.77279 | 12464 ft | 216 kts | 94° |
| 2026-05-07 17:20 | 57.17247 | -1.74513 | 13096 ft | 219 kts | 94° |
| 2026-05-07 17:20 | 57.17239 | -1.71741 | 13866 ft | 214 kts | 94° |
| 2026-05-07 17:20 | 57.17299 | -1.69070 | 14595 ft | 209 kts | 92° |
| 2026-05-07 17:20 | 57.17356 | -1.66448 | 15258 ft | 209 kts | 79° |
| 2026-05-07 17:21 | 57.18232 | -1.64221 | 15618 ft | 219 kts | 43° |
| 2026-05-07 17:21 | 57.19336 | -1.62448 | 16385 ft | 210 kts | 40° |
| 2026-05-07 17:21 | 57.20441 | -1.60726 | 16901 ft | 213 kts | 40° |
| 2026-05-07 17:21 | 57.21582 | -1.58979 | 17389 ft | 216 kts | 39° |
| 2026-05-07 17:22 | 57.22750 | -1.57220 | 17881 ft | 219 kts | 39° |
| 2026-05-07 17:22 | 57.23946 | -1.55450 | 18372 ft | 221 kts | 39° |
| 2026-05-07 17:22 | 57.25142 | -1.53709 | 18855 ft | 222 kts | 38° |
| 2026-05-07 17:22 | 57.26367 | -1.51954 | 19331 ft | 223 kts | 38° |
| 2026-05-07 17:23 | 57.27591 | -1.50229 | 19781 ft | 224 kts | 37° |
| 2026-05-07 17:23 | 57.28831 | -1.48510 | 20223 ft | 225 kts | 36° |
| 2026-05-07 17:23 | 57.30094 | -1.46785 | 20668 ft | 225 kts | 36° |
| 2026-05-07 17:23 | 57.31349 | -1.45100 | 21091 ft | 226 kts | 35° |
| 2026-05-07 17:24 | 57.32636 | -1.43397 | 21502 ft | 227 kts | 34° |
| 2026-05-07 17:24 | 57.33908 | -1.41740 | 21899 ft | 227 kts | 34° |
| 2026-05-07 17:24 | 57.35212 | -1.40069 | 22287 ft | 228 kts | 33° |
| 2026-05-07 17:24 | 57.36527 | -1.38409 | 22659 ft | 229 kts | 33° |
| 2026-05-07 17:25 | 57.37842 | -1.36774 | 23013 ft | 230 kts | 32° |
| 2026-05-07 17:25 | 57.39172 | -1.35147 | 23357 ft | 231 kts | 32° |
| 2026-05-07 17:25 | 57.40573 | -1.33458 | 23380 ft | 249 kts | 32° |
| 2026-05-07 17:25 | 57.42020 | -1.31737 | 23755 ft | 247 kts | 32° |
| 2026-05-07 17:26 | 57.43430 | -1.30081 | 24252 ft | 239 kts | 31° |
| 2026-05-07 17:26 | 57.44827 | -1.28460 | 24708 ft | 234 kts | 31° |
| 2026-05-07 17:26 | 57.46185 | -1.26904 | 25088 ft | 231 kts | 30° |
| 2026-05-07 17:26 | 57.47571 | -1.25340 | 25402 ft | 231 kts | 30° |
| 2026-05-07 17:27 | 57.48944 | -1.23814 | 25691 ft | 232 kts | 29° |
| 2026-05-07 17:27 | 57.50316 | -1.22311 | 25965 ft | 233 kts | 29° |
| 2026-05-07 17:27 | 57.51712 | -1.20804 | 26250 ft | 233 kts | 28° |
| 2026-05-07 17:27 | 57.53110 | -1.19316 | 26527 ft | 233 kts | 28° |
| 2026-05-07 17:28 | 57.54533 | -1.17824 | 26790 ft | 235 kts | 27° |
| 2026-05-07 17:28 | 57.55990 | -1.16321 | 26846 ft | 247 kts | 27° |
| 2026-05-07 17:28 | 57.57518 | -1.14771 | 26857 ft | 260 kts | 27° |
| 2026-05-07 17:28 | 57.59162 | -1.13129 | 26853 ft | 273 kts | 26° |
| 2026-05-07 17:29 | 57.60866 | -1.11451 | 26856 ft | 286 kts | 26° |
| 2026-05-07 17:29 | 57.62673 | -1.09695 | 26857 ft | 298 kts | 26° |
| 2026-05-07 17:29 | 57.64529 | -1.07913 | 26854 ft | 309 kts | 26° |
| 2026-05-07 17:29 | 57.66414 | -1.06126 | 26850 ft | 319 kts | 25° |
| 2026-05-07 17:30 | 57.68417 | -1.04246 | 26843 ft | 329 kts | 25° |
| 2026-05-07 17:30 | 57.70504 | -1.02308 | 26839 ft | 338 kts | 25° |
| 2026-05-07 17:30 | 57.72620 | -1.00366 | 26846 ft | 346 kts | 24° |
| 2026-05-07 17:30 | 57.74793 | -0.98394 | 26847 ft | 353 kts | 24° |
| 2026-05-07 17:31 | 57.77018 | -0.96396 | 26847 ft | 360 kts | 24° |
| 2026-05-07 17:31 | 57.79309 | -0.94361 | 26856 ft | 366 kts | 23° |
| 2026-05-07 17:31 | 57.81611 | -0.92336 | 26862 ft | 371 kts | 23° |
| 2026-05-07 17:31 | 57.83963 | -0.90286 | 26863 ft | 375 kts | 23° |
| 2026-05-07 17:32 | 57.86268 | -0.88297 | 26865 ft | 378 kts | 22° |
| 2026-05-07 17:32 | 57.88632 | -0.86273 | 26855 ft | 376 kts | 22° |
| 2026-05-07 17:32 | 57.91013 | -0.84248 | 26847 ft | 375 kts | 22° |
| 2026-05-07 17:32 | 57.93396 | -0.82237 | 26854 ft | 373 kts | 22° |
| 2026-05-07 17:33 | 57.95741 | -0.80273 | 26857 ft | 372 kts | 22° |
| 2026-05-07 17:33 | 57.98091 | -0.78319 | 26856 ft | 371 kts | 21° |
| 2026-05-07 17:33 | 58.00464 | -0.76361 | 26859 ft | 370 kts | 21° |
| 2026-05-07 17:33 | 58.02788 | -0.74458 | 26857 ft | 369 kts | 21° |
| 2026-05-07 17:34 | 58.05164 | -0.72528 | 26854 ft | 369 kts | 21° |
| 2026-05-07 17:34 | 58.07493 | -0.70652 | 26854 ft | 368 kts | 20° |
| 2026-05-07 17:34 | 58.09836 | -0.68780 | 26857 ft | 368 kts | 20° |
| 2026-05-07 17:34 | 58.12191 | -0.66914 | 26850 ft | 368 kts | 20° |
| 2026-05-07 17:35 | 58.14538 | -0.65069 | 26847 ft | 367 kts | 19° |
| 2026-05-07 17:35 | 58.16784 | -0.62738 | 26829 ft | 369 kts | 39° |
| 2026-05-07 17:35 | 58.18313 | -0.58958 | 26860 ft | 365 kts | 64° |
| 2026-05-07 17:35 | 58.19451 | -0.54706 | 26857 ft | 366 kts | 64° |
| 2026-05-07 17:36 | 58.20679 | -0.50430 | 26755 ft | 369 kts | 62° |
| 2026-05-07 17:36 | 58.21878 | -0.46191 | 26710 ft | 370 kts | 63° |
| 2026-05-07 17:36 | 58.23346 | -0.42203 | 26821 ft | 366 kts | 42° |
| 2026-05-07 17:36 | 58.25483 | -0.39791 | 26859 ft | 357 kts | 13° |
| 2026-05-07 17:37 | 58.27889 | -0.38909 | 26871 ft | 354 kts | 8° |
| 2026-05-07 17:37 | 58.30097 | -0.36876 | 26867 ft | 360 kts | 37° |
| 2026-05-07 17:37 | 58.31629 | -0.33198 | 26870 ft | 359 kts | 67° |
| 2026-05-07 17:37 | 58.32412 | -0.28752 | 26899 ft | 356 kts | 77° |
| 2026-05-07 17:38 | 58.33112 | -0.24183 | 26875 ft | 359 kts | 77° |
| 2026-05-07 17:38 | 58.33806 | -0.19639 | 26869 ft | 360 kts | 77° |
| 2026-05-07 17:38 | 58.34499 | -0.15097 | 26874 ft | 361 kts | 76° |
| 2026-05-07 17:38 | 58.35200 | -0.10494 | 26876 ft | 362 kts | 77° |
| 2026-05-07 17:39 | 58.35897 | -0.05909 | 26866 ft | 363 kts | 76° |
| 2026-05-07 17:39 | 58.36601 | -0.01271 | 26873 ft | 364 kts | 76° |
| 2026-05-07 17:39 | 58.37303 | 0.03362 | 26878 ft | 364 kts | 76° |
| 2026-05-07 17:39 | 58.38000 | 0.07969 | 26875 ft | 365 kts | 76° |
| 2026-05-07 17:40 | 58.38696 | 0.12582 | 26880 ft | 366 kts | 76° |
| 2026-05-07 17:40 | 58.39400 | 0.17256 | 26885 ft | 366 kts | 76° |
| 2026-05-07 17:40 | 58.40096 | 0.21884 | 26890 ft | 366 kts | 76° |
| 2026-05-07 17:40 | 58.40799 | 0.26566 | 26891 ft | 367 kts | 76° |
| 2026-05-07 17:41 | 58.41493 | 0.31188 | 26891 ft | 362 kts | 76° |
| 2026-05-07 17:41 | 58.42176 | 0.35706 | 26871 ft | 345 kts | 76° |
| 2026-05-07 17:41 | 58.42826 | 0.39994 | 26879 ft | 337 kts | 76° |
| 2026-05-07 17:41 | 58.43467 | 0.44293 | 26895 ft | 340 kts | 76° |
| 2026-05-07 17:42 | 58.44332 | 0.48494 | 26884 ft | 346 kts | 58° |
| 2026-05-07 17:42 | 58.45782 | 0.52189 | 26908 ft | 348 kts | 50° |
| 2026-05-07 17:42 | 58.47361 | 0.55682 | 26906 ft | 352 kts | 47° |
| 2026-05-07 17:42 | 58.49002 | 0.59145 | 26907 ft | 355 kts | 46° |
| 2026-05-07 17:43 | 58.50666 | 0.62597 | 26905 ft | 358 kts | 46° |
| 2026-05-07 17:43 | 58.52374 | 0.66117 | 26909 ft | 360 kts | 46° |
| 2026-05-07 17:43 | 58.54067 | 0.69607 | 26905 ft | 362 kts | 46° |
| 2026-05-07 17:43 | 58.55775 | 0.73127 | 26906 ft | 363 kts | 46° |
| 2026-05-07 17:44 | 58.57502 | 0.76691 | 26909 ft | 365 kts | 46° |
| 2026-05-07 17:44 | 58.59206 | 0.80214 | 26907 ft | 366 kts | 46° |
| 2026-05-07 17:44 | 58.60943 | 0.83808 | 26909 ft | 367 kts | 46° |
| 2026-05-07 17:44 | 58.62664 | 0.87375 | 26905 ft | 368 kts | 46° |
| 2026-05-07 17:45 | 58.64413 | 0.91008 | 26912 ft | 369 kts | 46° |
| 2026-05-07 17:45 | 58.66139 | 0.94595 | 26910 ft | 370 kts | 46° |
| 2026-05-07 17:45 | 58.67890 | 0.98245 | 26909 ft | 371 kts | 46° |
| 2026-05-07 17:45 | 58.69611 | 1.01834 | 26919 ft | 371 kts | 46° |
| 2026-05-07 17:46 | 58.71366 | 1.05502 | 26912 ft | 372 kts | 46° |
| 2026-05-07 17:46 | 58.73100 | 1.09128 | 26915 ft | 372 kts | 46° |
| 2026-05-07 17:46 | 58.74857 | 1.12814 | 26905 ft | 373 kts | 46° |
| 2026-05-07 17:46 | 58.76595 | 1.16460 | 26918 ft | 373 kts | 46° |
| 2026-05-07 17:47 | 58.78353 | 1.20159 | 26912 ft | 374 kts | 46° |
| 2026-05-07 17:47 | 58.80091 | 1.23819 | 26914 ft | 374 kts | 46° |
| 2026-05-07 17:47 | 58.81834 | 1.27495 | 26915 ft | 374 kts | 46° |
| 2026-05-07 17:47 | 58.83589 | 1.31204 | 26920 ft | 374 kts | 46° |
| 2026-05-07 17:48 | 58.85348 | 1.34928 | 26916 ft | 374 kts | 46° |
| 2026-05-07 17:48 | 58.87086 | 1.38612 | 26915 ft | 375 kts | 45° |
| 2026-05-07 17:48 | 58.88826 | 1.42306 | 26919 ft | 375 kts | 45° |
| 2026-05-07 17:48 | 58.90591 | 1.46059 | 26922 ft | 375 kts | 46° |
| 2026-05-07 17:49 | 58.92326 | 1.49756 | 26921 ft | 375 kts | 45° |
| 2026-05-07 17:49 | 58.94087 | 1.53512 | 26923 ft | 375 kts | 46° |
| 2026-05-07 17:49 | 58.95826 | 1.57229 | 26924 ft | 376 kts | 45° |
| 2026-05-07 17:49 | 58.97571 | 1.60965 | 26922 ft | 376 kts | 45° |
| 2026-05-07 17:50 | 58.99313 | 1.64700 | 26924 ft | 376 kts | 45° |
| 2026-05-07 17:50 | 59.01057 | 1.68446 | 26917 ft | 376 kts | 46° |
| 2026-05-07 17:50 | 59.02815 | 1.72227 | 26920 ft | 376 kts | 46° |
| 2026-05-07 17:50 | 59.04673 | 1.75755 | 26898 ft | 374 kts | 37° |
| 2026-05-07 17:51 | 59.06419 | 1.79469 | 26936 ft | 375 kts | 50° |
| 2026-05-07 17:51 | 59.08080 | 1.83333 | 26916 ft | 376 kts | 47° |
| 2026-05-07 17:51 | 59.09793 | 1.87118 | 26927 ft | 375 kts | 46° |
| 2026-05-07 17:51 | 59.11555 | 1.90943 | 26923 ft | 375 kts | 46° |
| 2026-05-07 17:52 | 59.13290 | 1.94691 | 26924 ft | 375 kts | 45° |
| 2026-05-07 17:52 | 59.14959 | 1.98306 | 26837 ft | 316 kts | 45° |
| 2026-05-07 17:52 | 59.16436 | 2.01490 | 26915 ft | 319 kts | 45° |
| 2026-05-07 17:52 | 59.17941 | 2.04738 | 26934 ft | 331 kts | 45° |
| 2026-05-07 17:53 | 59.19493 | 2.08097 | 26935 ft | 342 kts | 45° |
| 2026-05-07 17:53 | 59.21112 | 2.11606 | 26944 ft | 352 kts | 45° |
| 2026-05-07 17:53 | 59.22767 | 2.15202 | 26939 ft | 362 kts | 45° |
| 2026-05-07 17:53 | 59.24453 | 2.18872 | 26945 ft | 370 kts | 46° |
| 2026-05-07 17:54 | 59.26172 | 2.22617 | 26937 ft | 377 kts | 45° |
| 2026-05-07 17:54 | 59.27937 | 2.26469 | 26945 ft | 382 kts | 45° |
| 2026-05-07 17:54 | 59.29706 | 2.30337 | 26961 ft | 387 kts | 45° |
| 2026-05-07 17:54 | 59.31521 | 2.34314 | 26944 ft | 390 kts | 45° |
| 2026-05-07 17:55 | 59.33316 | 2.38252 | 26942 ft | 392 kts | 45° |
| 2026-05-07 17:55 | 59.35120 | 2.42218 | 26937 ft | 393 kts | 45° |
| 2026-05-07 17:55 | 59.36920 | 2.46179 | 26936 ft | 392 kts | 45° |
| 2026-05-07 17:55 | 59.38720 | 2.50150 | 26939 ft | 391 kts | 45° |
| 2026-05-07 17:56 | 59.40534 | 2.54157 | 26945 ft | 390 kts | 45° |
| 2026-05-07 17:56 | 59.42321 | 2.58112 | 26944 ft | 389 kts | 44° |
| 2026-05-07 17:56 | 59.44103 | 2.62061 | 26948 ft | 385 kts | 45° |
| 2026-05-07 17:56 | 59.45856 | 2.65955 | 26935 ft | 383 kts | 46° |
| 2026-05-07 17:57 | 59.47614 | 2.69864 | 26946 ft | 381 kts | 45° |
| 2026-05-07 17:57 | 59.48787 | 2.72476 | 26938 ft | 379 kts | 46° |
| 2026-05-07 17:57 | 59.51081 | 2.77596 | 26947 ft | 377 kts | 46° |
| 2026-05-07 17:57 | 59.52809 | 2.81458 | 26957 ft | 376 kts | 45° |
| 2026-05-07 17:58 | 59.54529 | 2.85310 | 26940 ft | 375 kts | 45° |
| 2026-05-07 17:58 | 59.56243 | 2.89155 | 26948 ft | 374 kts | 45° |
| 2026-05-07 17:58 | 59.57946 | 2.92982 | 26951 ft | 373 kts | 46° |
| 2026-05-07 17:58 | 59.59650 | 2.96814 | 26956 ft | 372 kts | 45° |
| 2026-05-07 17:59 | 59.61275 | 3.00478 | 26959 ft | 371 kts | 45° |
| 2026-05-07 17:59 | 59.62945 | 3.04250 | 26953 ft | 371 kts | 45° |
| 2026-05-07 17:59 | 59.64636 | 3.08075 | 26954 ft | 371 kts | 45° |
| 2026-05-07 17:59 | 59.66324 | 3.11897 | 26959 ft | 370 kts | 45° |
| 2026-05-07 18:00 | 59.68010 | 3.15724 | 26965 ft | 370 kts | 45° |
| 2026-05-07 18:00 | 59.69712 | 3.19593 | 26975 ft | 370 kts | 45° |
| 2026-05-07 18:00 | 59.71387 | 3.23406 | 26785 ft | 373 kts | 45° |
| 2026-05-07 18:00 | 59.73087 | 3.27279 | 26398 ft | 377 kts | 45° |
| 2026-05-07 18:01 | 59.74807 | 3.31210 | 26019 ft | 381 kts | 45° |
| 2026-05-07 18:01 | 59.76538 | 3.35170 | 25649 ft | 384 kts | 44° |
| 2026-05-07 18:01 | 59.78294 | 3.39195 | 25273 ft | 386 kts | 44° |
| 2026-05-07 18:01 | 59.80043 | 3.43212 | 24896 ft | 387 kts | 45° |
| 2026-05-07 18:02 | 59.83495 | 3.51165 | 24129 ft | 379 kts | 44° |
| 2026-05-07 18:02 | 59.85204 | 3.55110 | 23749 ft | 375 kts | 45° |
| 2026-05-07 18:02 | 59.86896 | 3.59022 | 23380 ft | 372 kts | 44° |
| 2026-05-07 18:03 | 59.88561 | 3.62880 | 23012 ft | 369 kts | 45° |
| 2026-05-07 18:03 | 59.90216 | 3.66721 | 22632 ft | 367 kts | 46° |
| 2026-05-07 18:03 | 59.91871 | 3.70566 | 22252 ft | 364 kts | 46° |
| 2026-05-07 18:03 | 59.93509 | 3.74380 | 21873 ft | 362 kts | 46° |
| 2026-05-07 18:04 | 59.95134 | 3.78170 | 21494 ft | 360 kts | 46° |
| 2026-05-07 18:04 | 59.96751 | 3.81947 | 21121 ft | 358 kts | 46° |
| 2026-05-07 18:04 | 59.98360 | 3.85711 | 20744 ft | 357 kts | 46° |
| 2026-05-07 18:04 | 59.99960 | 3.89460 | 20367 ft | 355 kts | 46° |
| 2026-05-07 18:05 | 60.01548 | 3.93186 | 19987 ft | 353 kts | 46° |
| 2026-05-07 18:05 | 60.03092 | 3.96949 | 19594 ft | 353 kts | 53° |
| 2026-05-07 18:05 | 60.04009 | 4.01420 | 19244 ft | 353 kts | 74° |
| 2026-05-07 18:05 | 60.04613 | 4.06165 | 18867 ft | 351 kts | 76° |
| 2026-05-07 18:06 | 60.05196 | 4.10878 | 18486 ft | 350 kts | 76° |
| 2026-05-07 18:06 | 60.05779 | 4.15634 | 17922 ft | 354 kts | 76° |
| 2026-05-07 18:06 | 60.06352 | 4.20343 | 17260 ft | 345 kts | 76° |
| 2026-05-07 18:06 | 60.06905 | 4.24901 | 16868 ft | 330 kts | 76° |
| 2026-05-07 18:07 | 60.07429 | 4.29229 | 16482 ft | 318 kts | 76° |
| 2026-05-07 18:07 | 60.07937 | 4.33447 | 16095 ft | 308 kts | 76° |
| 2026-05-07 18:07 | 60.08433 | 4.37581 | 15701 ft | 300 kts | 76° |
| 2026-05-07 18:07 | 60.08915 | 4.41605 | 15060 ft | 303 kts | 76° |
| 2026-05-07 18:08 | 60.09401 | 4.45681 | 14489 ft | 300 kts | 76° |
| 2026-05-07 18:08 | 60.09876 | 4.49664 | 14104 ft | 293 kts | 76° |
| 2026-05-07 18:08 | 60.10352 | 4.53673 | 13512 ft | 293 kts | 77° |
| 2026-05-07 18:08 | 60.10815 | 4.57573 | 13142 ft | 286 kts | 77° |
| 2026-05-07 18:09 | 60.11266 | 4.61389 | 12756 ft | 280 kts | 77° |
| 2026-05-07 18:09 | 60.11704 | 4.65138 | 12368 ft | 274 kts | 80° |
| 2026-05-07 18:09 | 60.11695 | 4.68875 | 11743 ft | 274 kts | 102° |
| 2026-05-07 18:09 | 60.11361 | 4.72617 | 11004 ft | 281 kts | 103° |
| 2026-05-07 18:10 | 60.11010 | 4.76523 | 10063 ft | 288 kts | 103° |
| 2026-05-07 18:10 | 60.10316 | 4.80070 | 9669 ft | 269 kts | 131° |
| 2026-05-07 18:10 | 60.08875 | 4.82150 | 9286 ft | 251 kts | 160° |
| 2026-05-07 18:10 | 60.07223 | 4.82832 | 8912 ft | 240 kts | 176° |
| 2026-05-07 18:11 | 60.05577 | 4.82984 | 8517 ft | 235 kts | 180° |
| 2026-05-07 18:11 | 60.04500 | 4.83178 | 8234 ft | 233 kts | 167° |
| 2026-05-07 18:11 | 60.02499 | 4.84567 | 7723 ft | 228 kts | 162° |
| 2026-05-07 18:11 | 60.01022 | 4.85631 | 7324 ft | 224 kts | 162° |
| 2026-05-07 18:12 | 59.99578 | 4.86679 | 6933 ft | 221 kts | 159° |
| 2026-05-07 18:12 | 59.98309 | 4.88417 | 6527 ft | 220 kts | 142° |
| 2026-05-07 18:12 | 59.97144 | 4.90353 | 6129 ft | 218 kts | 142° |
| 2026-05-07 18:12 | 59.95983 | 4.92277 | 5746 ft | 217 kts | 142° |
| 2026-05-07 18:13 | 59.94852 | 4.94238 | 5341 ft | 217 kts | 133° |
| 2026-05-07 18:13 | 59.94035 | 4.96772 | 4949 ft | 218 kts | 122° |
| 2026-05-07 18:13 | 59.93284 | 4.99334 | 4577 ft | 217 kts | 122° |
| 2026-05-07 18:13 | 59.92517 | 5.01943 | 4184 ft | 217 kts | 122° |
| 2026-05-07 18:14 | 59.91846 | 5.04606 | 3781 ft | 218 kts | 107° |
| 2026-05-07 18:14 | 59.91584 | 5.07564 | 3403 ft | 217 kts | 100° |
| 2026-05-07 18:14 | 59.91353 | 5.10484 | 3015 ft | 212 kts | 100° |
| 2026-05-07 18:14 | 59.91166 | 5.13346 | 2610 ft | 206 kts | 89° |
| 2026-05-07 18:15 | 59.91757 | 5.15749 | 2488 ft | 190 kts | 41° |
| 2026-05-07 18:15 | 59.92901 | 5.16654 | 2483 ft | 171 kts | 8° |
| 2026-05-07 18:15 | 59.94031 | 5.16796 | 2467 ft | 154 kts | 2° |
| 2026-05-07 18:15 | 59.95033 | 5.16802 | 2464 ft | 142 kts | 1° |
| 2026-05-07 18:16 | 59.96048 | 5.16759 | 2500 ft | 149 kts | 360° |
| 2026-05-07 18:16 | 59.97112 | 5.16688 | 2506 ft | 157 kts | 359° |
| 2026-05-07 18:16 | 59.98226 | 5.16601 | 2508 ft | 165 kts | 359° |
| 2026-05-07 18:16 | 59.99393 | 5.16504 | 2509 ft | 171 kts | 359° |
| 2026-05-07 18:17 | 60.00599 | 5.16402 | 2499 ft | 177 kts | 359° |
| 2026-05-07 18:17 | 60.01842 | 5.16295 | 2495 ft | 181 kts | 359° |
| 2026-05-07 18:17 | 60.03112 | 5.16186 | 2496 ft | 184 kts | 359° |
| 2026-05-07 18:17 | 60.04405 | 5.16075 | 2497 ft | 186 kts | 359° |
| 2026-05-07 18:18 | 60.05698 | 5.15963 | 2497 ft | 189 kts | 359° |
| 2026-05-07 18:18 | 60.07017 | 5.15849 | 2497 ft | 191 kts | 359° |
| 2026-05-07 18:18 | 60.08295 | 5.15735 | 2496 ft | 192 kts | 358° |
| 2026-05-07 18:18 | 60.09632 | 5.15609 | 2498 ft | 193 kts | 358° |
| 2026-05-07 18:19 | 60.10982 | 5.15475 | 2500 ft | 195 kts | 358° |
| 2026-05-07 18:19 | 60.12351 | 5.15332 | 2494 ft | 197 kts | 358° |
| 2026-05-07 18:19 | 60.13721 | 5.15181 | 2489 ft | 198 kts | 358° |
| 2026-05-07 18:19 | 60.15093 | 5.15022 | 2487 ft | 198 kts | 358° |
| 2026-05-07 18:20 | 60.16466 | 5.14853 | 2489 ft | 198 kts | 358° |
| 2026-05-07 18:20 | 60.17810 | 5.14950 | 2531 ft | 193 kts | 19° |
| 2026-05-07 18:20 | 60.18871 | 5.16533 | 2464 ft | 192 kts | 55° |
| 2026-05-07 18:20 | 60.19651 | 5.18935 | 2159 ft | 211 kts | 59° |
| 2026-05-07 18:21 | 60.20367 | 5.21336 | 2364 ft | 185 kts | 56° |
| 2026-05-07 18:21 | 60.21224 | 5.22845 | 2591 ft | 156 kts | 26° |
| 2026-05-07 18:21 | 60.22272 | 5.23607 | 2173 ft | 165 kts | 18° |
| 2026-05-07 18:21 | 60.23371 | 5.23973 | 1990 ft | 159 kts | 358° |
| 2026-05-07 18:22 | 60.24440 | 5.23506 | 1796 ft | 156 kts | 343° |
| 2026-05-07 18:22 | 60.25160 | 5.23126 | 1375 ft | 172 kts | 351° |
| 2026-05-07 18:22 | 60.26687 | 5.22705 | 783 ft | 159 kts | 350° |
| 2026-05-07 18:22 | 60.27762 | 5.22341 | 300 ft | 152 kts | 348° |
| 2026-05-07 18:23 | 60.28730 | 5.22014 | 167 ft | 129 kts | 349° |
| 2026-05-07 18:23 | 60.29504 | 5.21746 | 141 ft | 82 kts | 350° |
| 2026-05-07 18:23 | 60.29711 | 5.21866 | 142 ft | 16 kts | 89° |
| 2026-05-07 18:23 | 60.29629 | 5.22019 | 145 ft | 35 kts | 158° |
| 2026-05-07 18:24 | 60.29358 | 5.22128 | 153 ft | 30 kts | 169° |
| 2026-05-07 18:24 | 60.29181 | 5.22186 | 158 ft | 20 kts | 172° |
| 2026-05-07 18:24 | 60.29068 | 5.22300 | 163 ft | 2 kts | 85° |
| 2026-05-07 18:24 | 60.29054 | 5.22361 | 165 ft | 16 kts | 143° |
| 2026-05-07 18:25 | 60.29046 | 5.22654 | 171 ft | 18 kts | 81° |
| 2026-05-07 18:25 | 60.29047 | 5.22696 | 172 ft | 3 kts | 94° |
| 2026-05-07 18:25 | 60.29028 | 5.22840 | 174 ft | 11 kts | 146° |
| 2026-05-07 18:25 | 60.29060 | 5.22791 | 173 ft | 19 kts | 22° |
| 2026-05-07 18:26 | 60.29098 | 5.22864 | 174 ft | 0 kts | 44° |